createdAt,value
2023-05-06T00:01:01.735Z,100284.00
2023-05-06T00:03:28.751Z,100286.47
2023-05-06T00:05:56.603Z,100292.81
2023-05-06T00:08:23.297Z,100296.66
2023-05-06T00:10:49.957Z,100282.22
2023-05-06T00:13:27.530Z,100289.59
2023-05-06T00:15:54.122Z,100278.69
2023-05-06T00:18:20.699Z,100280.59
2023-05-06T00:20:47.209Z,100276.63
2023-05-06T00:23:13.754Z,100284.13
2023-05-06T00:25:42.440Z,100268.09
2023-05-06T00:28:12.305Z,100267.88
2023-05-06T00:30:42.917Z,100268.09
2023-05-06T00:33:09.474Z,100269.88
2023-05-06T00:35:37.858Z,100264.34
2023-05-06T00:38:09.164Z,100272.66
2023-05-06T00:40:35.699Z,100270.00
2023-05-06T00:43:02.330Z,100271.78
2023-05-06T00:45:29.071Z,100273.72
2023-05-06T00:47:57.459Z,100269.28
2023-05-06T00:50:28.586Z,100268.38
2023-05-06T00:52:58.088Z,100279.16
2023-05-06T00:55:24.866Z,100270.19
2023-05-06T00:57:51.902Z,100283.63
2023-05-06T01:00:19.815Z,100276.56
2023-05-06T01:02:47.832Z,100284.72
2023-05-06T01:05:18.859Z,100275.44
2023-05-06T01:07:52.442Z,100273.72
2023-05-06T01:10:26.693Z,100276.56
2023-05-06T01:13:01.884Z,100270.47
2023-05-06T01:15:33.329Z,100277.94
2023-05-06T01:18:04.245Z,100270.59
2023-05-06T01:20:33.618Z,100275.91
2023-05-06T01:23:01.781Z,100262.50
2023-05-06T01:25:30.427Z,100273.38
2023-05-06T01:27:56.888Z,100288.97
2023-05-06T01:30:29.979Z,100285.44
2023-05-06T01:33:03.991Z,100292.88
2023-05-06T01:35:40.029Z,100292.91
2023-05-06T01:38:27.611Z,100285.66
2023-05-06T01:40:56.957Z,100294.88
2023-05-06T01:43:26.384Z,100284.38
2023-05-06T01:45:54.735Z,100287.94
2023-05-06T01:48:24.568Z,100280.72
2023-05-06T01:50:51.057Z,100281.59
2023-05-06T01:53:17.698Z,100277.31
2023-05-06T01:55:44.220Z,100271.88
2023-05-06T01:58:12.090Z,100270.06
2023-05-06T02:00:40.668Z,100284.75
2023-05-06T02:03:07.279Z,100287.38
2023-05-06T02:05:33.757Z,100284.59
2023-05-06T02:08:00.528Z,100290.25
2023-05-06T02:10:27.429Z,100282.03
2023-05-06T02:13:01.552Z,100282.19
2023-05-06T02:15:29.523Z,100280.19
2023-05-06T02:17:56.548Z,100280.28
2023-05-06T02:20:23.303Z,100285.72
2023-05-06T02:22:50.276Z,100290.25
2023-05-06T02:25:16.765Z,100292.00
2023-05-06T02:27:45.125Z,100286.56
2023-05-06T02:30:12.217Z,100289.44
2023-05-06T02:32:40.012Z,100290.25
2023-05-06T02:35:07.893Z,100295.53
2023-05-06T02:37:34.549Z,100294.06
2023-05-06T02:40:01.449Z,100289.53
2023-05-06T02:42:27.918Z,100293.91
2023-05-06T02:44:54.332Z,100289.84
2023-05-06T02:47:20.778Z,100291.81
2023-05-06T02:49:48.575Z,100292.56
2023-05-06T02:52:15.099Z,100291.25
2023-05-06T02:54:41.617Z,100287.56
2023-05-06T02:57:08.086Z,100291.38
2023-05-06T02:59:34.999Z,100290.44
2023-05-06T03:02:01.545Z,100293.06
2023-05-06T03:04:28.118Z,100284.28
2023-05-06T03:06:56.143Z,100275.22
2023-05-06T03:09:22.708Z,100284.19
2023-05-06T03:11:49.390Z,100287.97
2023-05-06T03:14:16.541Z,100294.34
2023-05-06T03:16:43.063Z,100293.41
2023-05-06T03:19:09.720Z,100292.59
2023-05-06T03:21:36.372Z,100298.06
2023-05-06T03:24:05.292Z,100285.59
2023-05-06T03:26:31.874Z,100295.97
2023-05-06T03:28:59.198Z,100276.84
2023-05-06T03:31:25.979Z,100280.44
2023-05-06T03:33:53.664Z,100270.69
2023-05-06T03:36:20.506Z,100284.44
2023-05-06T03:38:48.169Z,100273.72
2023-05-06T03:41:16.050Z,100287.16
2023-05-06T03:43:42.537Z,100289.19
2023-05-06T03:46:09.901Z,100285.66
2023-05-06T03:48:37.047Z,100284.63
2023-05-06T03:51:06.815Z,100287.69
2023-05-06T03:53:33.346Z,100287.78
2023-05-06T03:55:59.866Z,100283.44
2023-05-06T03:58:27.926Z,100288.97
2023-05-06T04:00:57.807Z,100289.94
2023-05-06T04:03:24.438Z,100298.91
2023-05-06T04:05:53.953Z,100289.13
2023-05-06T04:08:24.873Z,100300.66
2023-05-06T04:10:53.171Z,100306.09
2023-05-06T04:13:28.806Z,100293.59
2023-05-06T04:15:57.995Z,100304.34
2023-05-06T04:18:30.227Z,100318.03
2023-05-06T04:21:01.550Z,100319.13
2023-05-06T04:23:30.334Z,100327.16
2023-05-06T04:25:58.098Z,100325.19
2023-05-06T04:28:25.314Z,100332.38
2023-05-06T04:30:54.282Z,100327.81
2023-05-06T04:33:24.503Z,100342.13
2023-05-06T04:35:53.114Z,100347.56
2023-05-06T04:38:20.331Z,100343.03
2023-05-06T04:40:46.946Z,100344.66
2023-05-06T04:43:13.678Z,100356.28
2023-05-06T04:45:46.609Z,100357.97
2023-05-06T04:48:22.180Z,100364.16
2023-05-06T04:50:50.752Z,100357.66
2023-05-06T04:53:18.032Z,100367.06
2023-05-06T04:55:44.750Z,100363.25
2023-05-06T04:58:11.565Z,100371.16
2023-05-06T05:00:41.772Z,100372.09
2023-05-06T05:03:15.493Z,100363.00
2023-05-06T05:05:43.823Z,100377.25
2023-05-06T05:08:21.279Z,100385.41
2023-05-06T05:10:48.072Z,100376.09
2023-05-06T05:13:19.501Z,100370.59
2023-05-06T05:15:46.070Z,100384.00
2023-05-06T05:18:14.664Z,100371.97
2023-05-06T05:20:41.881Z,100379.75
2023-05-06T05:23:12.414Z,100378.06
2023-05-06T05:25:38.895Z,100380.75
2023-05-06T05:28:05.647Z,100380.53
2023-05-06T05:30:33.371Z,100378.50
2023-05-06T05:33:00.099Z,100368.13
2023-05-06T05:35:26.947Z,100376.69
2023-05-06T05:37:54.810Z,100375.63
2023-05-06T05:40:23.265Z,100386.78
2023-05-06T05:42:52.218Z,100387.78
2023-05-06T05:45:27.651Z,100387.63
2023-05-06T05:47:54.907Z,100386.34
2023-05-06T05:50:22.612Z,100391.00
2023-05-06T05:52:50.007Z,100395.31
2023-05-06T05:55:17.942Z,100395.28
2023-05-06T05:57:47.736Z,100398.59
2023-05-06T06:00:15.684Z,100415.56
2023-05-06T06:02:45.073Z,100410.41
2023-05-06T06:05:14.245Z,100402.31
2023-05-06T06:07:40.819Z,100403.47
2023-05-06T06:10:08.496Z,100406.41
2023-05-06T06:12:35.045Z,100399.75
2023-05-06T06:15:04.401Z,100406.53
2023-05-06T06:17:31.778Z,100414.00
2023-05-06T06:19:59.036Z,100423.69
2023-05-06T06:22:25.505Z,100419.34
2023-05-06T06:24:53.667Z,100428.66
2023-05-06T06:27:20.185Z,100418.84
2023-05-06T06:29:47.494Z,100425.25
2023-05-06T06:32:15.431Z,100423.16
2023-05-06T06:34:41.966Z,100435.56
2023-05-06T06:37:09.933Z,100432.16
2023-05-06T06:39:36.424Z,100432.72
2023-05-06T06:42:02.982Z,100432.53
2023-05-06T06:44:35.709Z,100446.19
2023-05-06T06:47:02.208Z,100446.34
2023-05-06T06:49:30.202Z,100446.06
2023-05-06T06:51:56.627Z,100453.56
2023-05-06T06:54:23.166Z,100449.47
2023-05-06T06:56:49.641Z,100450.03
2023-05-06T06:59:16.026Z,100465.78
2023-05-06T07:01:42.494Z,100457.31
2023-05-06T07:04:09.015Z,100469.47
2023-05-06T07:06:36.917Z,100472.72
2023-05-06T07:09:03.603Z,100467.56
2023-05-06T07:11:30.036Z,100483.25
2023-05-06T07:13:56.447Z,100483.84
2023-05-06T07:16:22.872Z,100484.09
2023-05-06T07:18:49.339Z,100498.66
2023-05-06T07:21:15.782Z,100492.75
2023-05-06T07:23:43.563Z,100504.03
2023-05-06T07:26:09.961Z,100501.28
2023-05-06T07:28:36.401Z,100505.00
2023-05-06T07:31:02.851Z,100513.25
2023-05-06T07:33:29.270Z,100515.66
2023-05-06T07:35:55.764Z,100516.47
2023-05-06T07:38:22.314Z,100515.75
2023-05-06T07:40:50.833Z,100520.00
2023-05-06T07:43:17.332Z,100527.22
2023-05-06T07:45:43.771Z,100524.97
2023-05-06T07:48:10.234Z,100521.78
2023-05-06T07:50:36.708Z,100528.72
2023-05-06T07:53:03.148Z,100527.84
2023-05-06T07:55:29.556Z,100521.75
2023-05-06T07:57:57.357Z,100525.31
2023-05-06T08:00:23.729Z,100526.63
2023-05-06T08:02:50.318Z,100535.00
2023-05-06T08:05:16.865Z,100530.72
2023-05-06T08:07:43.420Z,100519.69
2023-05-06T08:10:10.473Z,100519.53
2023-05-06T08:12:37.422Z,100527.25
2023-05-06T08:15:06.364Z,100519.78
2023-05-06T08:17:32.855Z,100526.78
2023-05-06T08:19:59.320Z,100524.13
2023-05-06T08:22:25.957Z,100528.19
2023-05-06T08:24:52.340Z,100528.69
2023-05-06T08:27:18.755Z,100539.44
2023-05-06T08:29:45.387Z,100532.38
2023-05-06T08:32:13.232Z,100535.50
2023-05-06T08:34:39.606Z,100523.44
2023-05-06T08:37:06.489Z,100535.19
2023-05-06T08:39:32.905Z,100541.34
2023-05-06T08:42:01.017Z,100537.22
2023-05-06T08:44:27.765Z,100539.50
2023-05-06T08:46:54.680Z,100542.09
2023-05-06T08:49:22.539Z,100537.50
2023-05-06T08:51:51.449Z,100534.69
2023-05-06T08:54:18.173Z,100533.72
2023-05-06T08:56:48.224Z,100530.13
2023-05-06T08:59:15.090Z,100528.66
2023-05-06T09:01:41.634Z,100534.63
2023-05-06T09:04:08.426Z,100530.47
2023-05-06T09:06:36.210Z,100534.72
2023-05-06T09:09:02.930Z,100534.47
2023-05-06T09:11:30.078Z,100535.34
2023-05-06T09:14:11.184Z,100544.63
2023-05-06T09:16:38.578Z,100540.69
2023-05-06T09:19:05.700Z,100536.75
2023-05-06T09:21:33.508Z,100532.16
2023-05-06T09:24:02.897Z,100525.63
2023-05-06T09:26:30.247Z,100518.59
2023-05-06T09:28:57.523Z,100515.28
2023-05-06T09:31:24.584Z,100519.03
2023-05-06T09:33:51.382Z,100513.47
2023-05-06T09:36:18.138Z,100528.28
2023-05-06T09:38:44.589Z,100536.88
2023-05-06T09:41:12.954Z,100515.72
2023-05-06T09:43:42.686Z,100531.97
2023-05-06T09:46:09.271Z,100532.03
2023-05-06T09:48:36.265Z,100533.84
2023-05-06T09:51:03.492Z,100535.59
2023-05-06T09:53:31.684Z,100539.41
2023-05-06T09:55:58.425Z,100537.88
2023-05-06T09:58:27.751Z,100538.59
2023-05-06T10:00:55.256Z,100535.06
2023-05-06T10:03:22.098Z,100545.88
2023-05-06T10:05:49.005Z,100548.75
2023-05-06T10:08:18.429Z,100556.63
2023-05-06T10:10:45.792Z,100550.72
2023-05-06T10:13:13.273Z,100552.75
2023-05-06T10:15:42.871Z,100546.31
2023-05-06T10:18:09.629Z,100541.09
2023-05-06T10:20:40.830Z,100543.00
2023-05-06T10:23:13.069Z,100530.31
2023-05-06T10:25:40.530Z,100543.09
2023-05-06T10:28:16.081Z,100542.84
2023-05-06T10:30:52.273Z,100540.78
2023-05-06T10:33:22.842Z,100540.09
2023-05-06T10:35:56.548Z,100540.59
2023-05-06T10:38:28.131Z,100546.00
2023-05-06T10:40:55.574Z,100546.47
2023-05-06T10:43:23.428Z,100545.00
2023-05-06T10:46:02.342Z,100549.56
2023-05-06T10:48:29.143Z,100548.41
2023-05-06T10:51:21.450Z,100542.66
2023-05-06T10:54:03.946Z,100544.13
2023-05-06T10:56:32.052Z,100548.94
2023-05-06T10:59:04.990Z,100546.75
2023-05-06T11:01:32.778Z,100537.72
2023-05-06T11:04:04.840Z,100541.81
2023-05-06T11:06:35.736Z,100535.34
2023-05-06T11:09:03.478Z,100538.03
2023-05-06T11:11:49.813Z,100539.31
2023-05-06T11:14:25.880Z,100541.06
2023-05-06T11:16:54.032Z,100539.72
2023-05-06T11:19:22.043Z,100546.41
2023-05-06T11:21:50.511Z,100545.47
2023-05-06T11:24:23.238Z,100533.97
2023-05-06T11:26:50.368Z,100538.16
2023-05-06T11:29:17.617Z,100547.78
2023-05-06T11:31:44.987Z,100537.03
2023-05-06T11:34:18.498Z,100537.03
2023-05-06T11:36:46.543Z,100540.28
2023-05-06T11:39:13.049Z,100533.50
2023-05-06T11:41:40.027Z,100547.09
2023-05-06T11:44:07.993Z,100542.63
2023-05-06T11:46:35.807Z,100548.81
2023-05-06T11:49:02.445Z,100561.38
2023-05-06T11:51:30.222Z,100548.63
2023-05-06T11:54:05.481Z,100556.00
2023-05-06T11:56:43.533Z,100546.53
2023-05-06T11:59:09.965Z,100558.44
2023-05-06T12:01:36.429Z,100557.34
2023-05-06T12:04:03.175Z,100566.69
2023-05-06T12:06:35.490Z,100564.38
2023-05-06T12:09:04.015Z,100562.91
2023-05-06T12:11:30.869Z,100560.78
2023-05-06T12:13:57.672Z,100564.75
2023-05-06T12:16:24.720Z,100568.34
2023-05-06T12:18:52.256Z,100569.66
2023-05-06T12:21:22.361Z,100562.41
2023-05-06T12:23:54.678Z,100569.22
2023-05-06T12:26:21.193Z,100567.00
2023-05-06T12:29:03.096Z,100560.63
2023-05-06T12:31:29.560Z,100568.28
2023-05-06T12:33:57.122Z,100563.41
2023-05-06T12:36:24.633Z,100572.84
2023-05-06T12:38:53.245Z,100570.75
2023-05-06T12:41:19.893Z,100567.16
2023-05-06T12:43:46.629Z,100557.78
2023-05-06T12:46:15.248Z,100571.63
2023-05-06T12:48:55.201Z,100557.22
2023-05-06T12:51:21.831Z,100565.25
2023-05-06T12:53:48.204Z,100574.25
2023-05-06T12:56:15.966Z,100565.38
2023-05-06T12:58:42.354Z,100576.03
2023-05-06T13:01:09.005Z,100570.53
2023-05-06T13:03:38.017Z,100576.13
2023-05-06T13:06:07.695Z,100579.66
2023-05-06T13:08:34.160Z,100584.97
2023-05-06T13:11:00.550Z,100580.13
2023-05-06T13:13:28.328Z,100585.13
2023-05-06T13:15:54.801Z,100578.88
2023-05-06T13:18:21.204Z,100581.78
2023-05-06T13:20:47.694Z,100575.72
2023-05-06T13:23:14.077Z,100578.88
2023-05-06T13:25:55.971Z,100584.41
2023-05-06T13:28:28.159Z,100585.75
2023-05-06T13:30:54.589Z,100587.88
2023-05-06T13:33:21.045Z,100580.03
2023-05-06T13:35:47.457Z,100583.91
2023-05-06T13:38:13.902Z,100581.53
2023-05-06T13:40:40.268Z,100585.50
2023-05-06T13:43:06.725Z,100582.91
2023-05-06T13:45:34.548Z,100586.03
2023-05-06T13:48:01.023Z,100588.09
2023-05-06T13:50:27.398Z,100582.03
2023-05-06T13:52:53.835Z,100581.41
2023-05-06T13:55:20.217Z,100565.59
2023-05-06T13:57:46.640Z,100578.09
2023-05-06T14:00:16.248Z,100565.72
2023-05-06T14:02:43.982Z,100571.44
2023-05-06T14:05:10.902Z,100559.63
2023-05-06T14:07:40.233Z,100561.69
2023-05-06T14:10:08.110Z,100562.97
2023-05-06T14:12:34.666Z,100570.63
2023-05-06T14:15:01.147Z,100577.53
2023-05-06T14:17:27.669Z,100575.34
2023-05-06T14:19:55.395Z,100583.41
2023-05-06T14:22:21.809Z,100585.94
2023-05-06T14:24:48.238Z,100585.63
2023-05-06T14:27:14.716Z,100576.91
2023-05-06T14:29:41.477Z,100578.41
2023-05-06T14:32:07.894Z,100572.00
2023-05-06T14:34:34.488Z,100579.06
2023-05-06T14:37:02.379Z,100584.84
2023-05-06T14:39:28.804Z,100583.84
2023-05-06T14:41:55.263Z,100577.25
2023-05-06T14:44:21.935Z,100571.66
2023-05-06T14:46:49.191Z,100575.25
2023-05-06T14:49:15.634Z,100581.66
2023-05-06T14:51:42.908Z,100574.56
2023-05-06T14:54:10.701Z,100569.25
2023-05-06T14:56:37.194Z,100580.38
2023-05-06T14:59:04.234Z,100581.06
2023-05-06T15:01:30.921Z,100577.72
2023-05-06T15:03:57.342Z,100579.66
2023-05-06T15:06:23.808Z,100576.47
2023-05-06T15:08:50.275Z,100579.81
2023-05-06T15:11:18.004Z,100574.91
2023-05-06T15:13:44.440Z,100575.59
2023-05-06T15:16:11.605Z,100575.03
2023-05-06T15:18:38.156Z,100565.50
2023-05-06T15:21:04.632Z,100574.94
2023-05-06T15:23:31.141Z,100582.88
2023-05-06T15:25:57.574Z,100588.19
2023-05-06T15:28:25.436Z,100584.72
2023-05-06T15:30:51.836Z,100575.69
2023-05-06T15:33:18.273Z,100582.94
2023-05-06T15:35:44.712Z,100583.22
2023-05-06T15:38:11.155Z,100585.00
2023-05-06T15:40:38.174Z,100591.25
2023-05-06T15:43:04.654Z,100587.94
2023-05-06T15:45:33.103Z,100599.47
2023-05-06T15:47:59.576Z,100597.63
2023-05-06T15:52:58.002Z,100598.50
2023-05-06T15:55:25.312Z,100594.66
2023-05-06T15:57:52.576Z,100595.63
2023-05-06T16:00:37.375Z,100601.13
2023-05-06T16:03:06.796Z,100601.34
2023-05-06T16:05:34.735Z,100602.38
2023-05-06T16:08:01.321Z,100601.41
2023-05-06T16:10:27.709Z,100603.72
2023-05-06T16:12:54.130Z,100609.34
2023-05-06T16:15:20.919Z,100617.19
2023-05-06T16:17:47.380Z,100611.56
2023-05-06T16:20:15.168Z,100611.75
2023-05-06T16:22:41.582Z,100613.13
2023-05-06T16:25:08.344Z,100615.44
2023-05-06T16:27:34.858Z,100617.50
2023-05-06T16:30:01.616Z,100614.06
2023-05-06T16:32:28.089Z,100616.69
2023-05-06T16:34:54.484Z,100608.75
2023-05-06T16:37:22.232Z,100615.28
2023-05-06T16:39:49.026Z,100617.41
2023-05-06T16:42:15.605Z,100616.28
2023-05-06T16:44:41.962Z,100614.25
2023-05-06T16:47:08.468Z,100613.88
2023-05-06T16:49:35.106Z,100610.88
2023-05-06T16:52:01.566Z,100621.19
2023-05-06T16:54:29.379Z,100624.09
2023-05-06T16:56:55.810Z,100618.97
2023-05-06T16:59:22.642Z,100623.31
2023-05-06T17:01:49.159Z,100617.91
2023-05-06T17:04:15.630Z,100630.25
2023-05-06T17:06:42.014Z,100620.69
2023-05-06T17:09:08.437Z,100630.53
2023-05-06T17:11:36.269Z,100625.59
2023-05-06T17:14:02.772Z,100637.19
2023-05-06T17:16:29.277Z,100637.50
2023-05-06T17:18:55.764Z,100638.44
2023-05-06T17:21:22.169Z,100637.41
2023-05-06T17:23:48.669Z,100650.09
2023-05-06T17:26:15.133Z,100643.22
2023-05-06T17:28:42.991Z,100652.25
2023-05-06T17:31:09.461Z,100652.91
2023-05-06T17:33:35.976Z,100659.94
2023-05-06T17:36:02.449Z,100659.69
2023-05-06T17:38:28.864Z,100664.63
2023-05-06T17:40:55.317Z,100669.00
2023-05-06T17:43:21.768Z,100663.69
2023-05-06T17:45:49.511Z,100662.34
2023-05-06T17:48:16.004Z,100670.78
2023-05-06T17:50:42.474Z,100662.53
2023-05-06T17:53:08.982Z,100675.97
2023-05-06T17:55:35.567Z,100684.47
2023-05-06T17:58:02.010Z,100688.41
2023-05-06T18:00:28.492Z,100688.34
2023-05-06T18:02:56.376Z,100687.59
2023-05-06T18:05:23.241Z,100689.81
2023-05-06T18:07:49.712Z,100688.31
2023-05-06T18:10:16.558Z,100695.59
2023-05-06T18:12:43.075Z,100695.09
2023-05-06T18:15:10.478Z,100683.88
2023-05-06T18:17:37.331Z,100690.66
2023-05-06T18:20:06.398Z,100692.78
2023-05-06T18:22:32.906Z,100696.03
2023-05-06T18:24:59.373Z,100687.28
2023-05-06T18:27:26.081Z,100682.06
2023-05-06T18:29:52.569Z,100683.97
2023-05-06T18:32:19.049Z,100684.44
2023-05-06T18:34:45.437Z,100690.78
2023-05-06T18:37:13.233Z,100688.13
2023-05-06T18:39:40.053Z,100699.91
2023-05-06T18:42:06.527Z,100698.19
2023-05-06T18:44:33.087Z,100701.34
2023-05-06T18:46:59.509Z,100703.22
2023-05-06T18:49:25.970Z,100709.00
2023-05-06T18:51:52.549Z,100721.88
2023-05-06T18:54:20.340Z,100717.63
2023-05-06T18:56:46.851Z,100715.19
2023-05-06T18:59:13.370Z,100717.84
2023-05-06T19:01:40.063Z,100729.94
2023-05-06T19:04:06.549Z,100739.22
2023-05-06T19:06:33.071Z,100743.22
2023-05-06T19:08:59.594Z,100734.59
2023-05-06T19:11:27.385Z,100735.66
2023-05-06T19:13:53.792Z,100742.06
2023-05-06T19:16:20.289Z,100747.69
2023-05-06T19:18:46.776Z,100743.31
2023-05-06T19:21:13.515Z,100755.00
2023-05-06T19:23:40.038Z,100755.22
2023-05-06T19:26:07.050Z,100761.66
2023-05-06T19:28:34.909Z,100769.03
2023-05-06T19:31:01.749Z,100764.69
2023-05-06T19:33:28.379Z,100763.03
2023-05-06T19:35:54.857Z,100756.88
2023-05-06T19:38:21.365Z,100758.09
2023-05-06T19:40:47.801Z,100763.53
2023-05-06T19:43:14.293Z,100768.84
2023-05-06T19:45:42.221Z,100772.19
2023-05-06T19:48:09.130Z,100769.97
2023-05-06T19:50:35.934Z,100776.38
2023-05-06T19:53:03.004Z,100783.53
2023-05-06T19:55:29.579Z,100780.91
2023-05-06T19:57:56.538Z,100789.94
2023-05-06T20:00:23.576Z,100783.53
2023-05-06T20:02:51.490Z,100778.00
2023-05-06T20:05:18.454Z,100779.69
2023-05-06T20:07:44.926Z,100793.22
2023-05-06T20:10:11.532Z,100785.81
2023-05-06T20:12:38.047Z,100784.84
2023-05-06T20:15:05.799Z,100782.38
2023-05-06T20:17:32.923Z,100785.22
2023-05-06T20:20:02.683Z,100789.69
2023-05-06T20:22:30.742Z,100782.75
2023-05-06T20:25:07.926Z,100794.47
2023-05-06T20:27:34.544Z,100801.81
2023-05-06T20:30:01.295Z,100794.75
2023-05-06T20:32:28.197Z,100803.66
2023-05-06T20:34:55.061Z,100799.03
2023-05-06T20:37:23.698Z,100802.84
2023-05-06T20:39:50.352Z,100806.59
2023-05-06T20:42:16.791Z,100810.97
2023-05-06T20:44:43.319Z,100801.81
2023-05-06T20:47:09.776Z,100802.72
2023-05-06T20:49:36.256Z,100803.66
2023-05-06T20:52:02.807Z,100802.84
2023-05-06T20:54:30.612Z,100809.94
2023-05-06T20:56:57.070Z,100807.13
2023-05-06T20:59:23.565Z,100806.97
2023-05-06T21:01:50.129Z,100815.25
2023-05-06T21:04:17.739Z,100816.94
2023-05-06T21:06:44.436Z,100829.53
2023-05-06T21:09:11.556Z,100824.22
2023-05-06T21:11:42.114Z,100820.81
2023-05-06T21:14:08.677Z,100821.09
2023-05-06T21:16:35.219Z,100827.66
2023-05-06T21:19:01.805Z,100824.00
2023-05-06T21:21:30.070Z,100823.94
2023-05-06T21:23:56.601Z,100822.97
2023-05-06T21:26:23.089Z,100822.84
2023-05-06T21:28:51.065Z,100831.66
2023-05-06T21:31:19.275Z,100820.97
2023-05-06T21:33:45.842Z,100822.84
2023-05-06T21:36:12.406Z,100819.22
2023-05-06T21:38:39.044Z,100827.22
2023-05-06T21:41:05.661Z,100820.78
2023-05-06T21:43:33.371Z,100823.34
2023-05-06T21:46:02.434Z,100825.16
2023-05-06T21:48:28.902Z,100822.44
2023-05-06T21:50:55.484Z,100824.22
2023-05-06T21:53:21.998Z,100810.75
2023-05-06T21:55:48.542Z,100815.25
2023-05-06T21:58:14.985Z,100816.28
2023-05-06T22:00:43.784Z,100816.59
2023-05-06T22:03:11.608Z,100823.81
2023-05-06T22:05:38.305Z,100827.50
2023-05-06T22:08:05.178Z,100830.97
2023-05-06T22:10:31.781Z,100825.69
2023-05-06T22:12:58.670Z,100832.06
2023-05-06T22:15:25.303Z,100827.53
2023-05-06T22:17:51.802Z,100832.22
2023-05-06T22:20:19.857Z,100837.38
2023-05-06T22:22:46.272Z,100837.53
2023-05-06T22:25:13.041Z,100838.34
2023-05-06T22:27:39.744Z,100841.88
2023-05-06T22:30:07.458Z,100844.38
2023-05-06T22:32:33.935Z,100846.16
2023-05-06T22:35:00.455Z,100848.03
2023-05-06T22:37:28.364Z,100840.78
2023-05-06T22:39:55.671Z,100839.84
2023-05-06T22:42:22.177Z,100837.97
2023-05-06T22:44:48.581Z,100835.38
2023-05-06T22:47:14.993Z,100839.84
2023-05-06T22:49:41.434Z,100842.59
2023-05-06T22:52:10.839Z,100843.53
2023-05-06T22:54:41.200Z,100844.38
2023-05-06T22:57:09.719Z,100842.69
2023-05-06T22:59:36.205Z,100839.00
2023-05-06T23:02:02.821Z,100832.84
2023-05-06T23:04:29.399Z,100833.09
2023-05-06T23:06:55.902Z,100833.19
2023-05-06T23:09:22.339Z,100833.25
2023-05-06T23:11:50.154Z,100838.78
2023-05-06T23:14:16.804Z,100839.81
2023-05-06T23:16:43.297Z,100833.66
2023-05-06T23:19:09.758Z,100835.69
2023-05-06T23:21:36.165Z,100846.53
2023-05-06T23:24:02.557Z,100844.72
2023-05-06T23:26:28.949Z,100845.69
2023-05-06T23:28:56.693Z,100848.56
2023-05-06T23:31:23.188Z,100836.97
2023-05-06T23:33:49.648Z,100834.19
2023-05-06T23:36:16.336Z,100832.38
2023-05-06T23:38:42.763Z,100831.47
2023-05-06T23:41:09.181Z,100836.16
2023-05-06T23:43:35.548Z,100825.16
2023-05-06T23:46:03.433Z,100832.31
2023-05-06T23:48:29.831Z,100844.91
2023-05-06T23:50:56.206Z,100834.16
2023-05-06T23:53:22.609Z,100836.00
2023-05-06T23:55:49.426Z,100835.09
2023-05-06T23:58:15.837Z,100836.88
